Time;durP1;ratioP1;P1;durP2;ratioP2;P2;SDS_P1;SDS_P2;PMS_P1;PMS_P2;Temp;Humidity;BMP_temperature;BMP_pressure;BME280_temperature;BME280_humidity;BME280_pressure;Samples;Min_cycle;Max_cycle;Signal;HPM_P1;HPM_P2
2022/09/21 04:15:20;;;;;;;6.72;3.85;;;;;;;5.12;100.00;101065.59;6014225;23;21180;-70
2022/09/21 04:17:49;;;;;;;4.85;2.22;;;;;;;5.24;100.00;101095.53;4972304;28;20034;-70
2022/09/21 04:20:15;;;;;;;2.72;1.80;;;;;;;5.21;100.00;101101.03;4971852;28;20058;-69
2022/09/21 04:22:40;;;;;;;5.03;2.03;;;;;;;5.23;100.00;101109.69;4973194;28;20486;-70
2022/09/21 04:25:06;;;;;;;2.53;1.95;;;;;;;5.24;100.00;101106.94;4973648;28;20039;-69
2022/09/21 04:27:32;;;;;;;3.20;2.22;;;;;;;5.30;100.00;101111.75;4973131;28;20043;-70
2022/09/21 04:29:58;;;;;;;2.72;1.85;;;;;;;5.32;100.00;101114.25;4972910;28;20126;-70
2022/09/21 04:32:24;;;;;;;3.72;2.03;;;;;;;5.31;100.00;101102.84;4972333;28;20045;-70
2022/09/21 04:34:49;;;;;;;3.75;2.13;;;;;;;5.26;100.00;101107.63;4972564;28;20034;-72
2022/09/21 04:37:15;;;;;;;6.03;2.25;;;;;;;5.27;100.00;101105.84;4972805;28;20046;-70
2022/09/21 04:39:40;;;;;;;2.90;1.70;;;;;;;5.31;100.00;101104.66;4972509;28;20042;-70
2022/09/21 04:42:06;;;;;;;4.13;2.08;;;;;;;5.26;100.00;101109.44;4987261;28;20065;-69
2022/09/21 04:44:31;;;;;;;4.07;2.00;;;;;;;5.23;100.00;101117.63;4987274;28;20034;-70
2022/09/21 04:46:57;;;;;;;2.75;2.10;;;;;;;5.20;100.00;101120.47;4972193;28;20413;-70
2022/09/21 04:49:23;;;;;;;9.23;2.20;;;;;;;5.15;100.00;101118.19;4972258;28;20058;-70
2022/09/21 04:51:48;;;;;;;2.28;1.50;;;;;;;5.13;100.00;101122.75;4972026;28;20058;-71
2022/09/21 04:54:14;;;;;;;1.80;1.35;;;;;;;5.14;100.00;101121.78;4972325;28;20051;-70
2022/09/21 04:56:39;;;;;;;4.30;2.35;;;;;;;5.15;100.00;101129.63;4971028;28;20043;-74
2022/09/21 04:59:05;;;;;;;5.03;2.30;;;;;;;5.17;100.00;101122.41;4972263;28;20118;-70
2022/09/21 05:01:30;;;;;;;4.45;2.17;;;;;;;5.20;100.00;101136.31;4971971;28;20046;-72
2022/09/21 05:04:01;;;;;;;3.30;2.20;;;;;;;5.19;100.00;101130.19;4970825;28;20113;-71
2022/09/21 05:06:31;;;;;;;3.63;1.75;;;;;;;5.22;100.00;101127.34;4972068;28;20398;-71
2022/09/21 05:11:41;;;;;;;4.22;2.17;;;;;;;5.21;100.00;101122.16;4970920;28;20046;-71
2022/09/21 05:14:07;;;;;;;2.60;1.83;;;;;;;5.26;100.00;101131.41;4972395;28;20043;-71
2022/09/21 05:16:32;;;;;;;3.70;2.33;;;;;;;5.30;100.00;101135.53;4972050;28;20034;-70
2022/09/21 05:18:58;;;;;;;2.58;1.65;;;;;;;5.32;100.00;101132.75;4972209;28;20042;-71
2022/09/21 05:21:23;;;;;;;7.68;2.30;;;;;;;5.26;100.00;101130.56;4971845;28;20046;-54
2022/09/21 05:23:49;;;;;;;3.88;2.10;;;;;;;5.29;100.00;101128.56;4972100;28;20062;-52
2022/09/21 05:26:14;;;;;;;3.92;1.80;;;;;;;5.34;100.00;101134.31;4974971;28;20043;-52
2022/09/21 05:28:40;;;;;;;1.92;1.73;;;;;;;5.37;100.00;101135.88;4975619;28;20121;-63
2022/09/21 05:31:29;;;;;;;3.22;2.03;;;;;;;5.41;100.00;101134.66;4975269;28;20046;-59
2022/09/21 05:34:17;;;;;;;7.00;1.85;;;;;;;5.41;100.00;101151.41;4975657;28;20035;-60
2022/09/21 05:37:18;;;;;;;3.53;1.60;;;;;;;5.45;100.00;101149.34;4946324;28;20062;-59
2022/09/21 05:39:44;;;;;;;3.60;2.25;;;;;;;5.50;100.00;101144.56;4972463;28;20051;-61
2022/09/21 05:42:09;;;;;;;3.53;1.85;;;;;;;5.55;100.00;101142.41;4975236;28;20030;-60
2022/09/21 05:44:35;;;;;;;3.75;2.20;;;;;;;5.52;100.00;101144.41;4974045;28;20039;-61
2022/09/21 05:47:07;;;;;;;3.17;2.03;;;;;;;5.57;100.00;101144.91;4975138;28;20049;-63
2022/09/21 05:49:51;;;;;;;4.45;1.98;;;;;;;5.60;100.00;101149.94;4975230;28;20046;-63
2022/09/21 05:52:43;;;;;;;2.55;1.77;;;;;;;5.61;100.00;101149.00;4975009;28;20035;-61
2022/09/21 05:55:31;;;;;;;4.40;2.10;;;;;;;5.63;100.00;101152.38;4968335;28;20042;-63
2022/09/21 05:58:36;;;;;;;3.63;2.05;;;;;;;5.71;100.00;101155.25;4975101;28;20035;-60
2022/09/21 06:01:32;;;;;;;4.57;2.22;;;;;;;5.72;100.00;101155.13;4974331;28;20441;-62
2022/09/21 06:03:58;;;;;;;2.80;1.90;;;;;;;5.80;100.00;101149.22;4974922;28;20043;-61
2022/09/21 06:06:24;;;;;;;3.85;2.08;;;;;;;5.82;100.00;101162.34;4974767;28;20051;-65
2022/09/21 06:08:49;;;;;;;3.85;2.17;;;;;;;5.89;100.00;101159.09;4974838;28;20038;-61
2022/09/21 06:11:15;;;;;;;5.85;2.50;;;;;;;5.95;100.00;101160.47;4974603;28;20501;-60
2022/09/21 06:13:40;;;;;;;4.72;2.33;;;;;;;6.04;100.00;101164.16;4974772;28;20035;-64
2022/09/21 06:16:06;;;;;;;3.78;2.65;;;;;;;6.07;100.00;101158.66;4973401;28;20125;-61
2022/09/21 06:18:39;;;;;;;4.80;2.78;;;;;;;6.14;100.00;101168.63;4974704;28;20050;-61
2022/09/21 06:21:06;;;;;;;3.75;2.40;;;;;;;6.19;100.00;101163.81;4974301;28;20122;-62
2022/09/21 06:23:32;;;;;;;6.00;3.00;;;;;;;6.26;100.00;101174.75;4974789;28;20077;-61
2022/09/21 06:25:57;;;;;;;7.53;2.30;;;;;;;6.35;100.00;101165.22;4989326;28;20039;-61
2022/09/21 06:28:23;;;;;;;3.58;2.42;;;;;;;6.39;100.00;101162.19;4974513;28;20105;-61
2022/09/21 06:30:53;;;;;;;4.95;2.67;;;;;;;6.46;100.00;101173.13;4974066;28;20100;-61
2022/09/21 06:33:20;;;;;;;4.43;3.00;;;;;;;6.53;100.00;101167.22;4974484;28;20120;-59
2022/09/21 06:35:59;;;;;;;8.27;2.97;;;;;;;6.62;100.00;101162.97;4973648;28;20077;-61
2022/09/21 06:38:26;;;;;;;4.20;2.17;;;;;;;6.69;100.00;101172.09;4974167;28;20039;-58
2022/09/21 06:40:52;;;;;;;3.78;2.35;;;;;;;6.79;100.00;101170.38;4972825;28;20034;-62
2022/09/21 06:43:18;;;;;;;5.50;2.88;;;;;;;6.87;100.00;101164.44;4974323;28;20030;-65
2022/09/21 06:45:52;;;;;;;4.85;2.80;;;;;;;7.00;100.00;101170.41;4974199;28;20043;-66
2022/09/21 06:48:17;;;;;;;5.90;2.25;;;;;;;7.11;100.00;101171.28;4974426;28;20043;-65
2022/09/21 06:50:42;;;;;;;5.57;2.47;;;;;;;7.23;100.00;101171.09;4973846;28;20042;-64
2022/09/21 06:53:08;;;;;;;4.80;2.80;;;;;;;7.30;100.00;101172.31;4973972;28;20537;-66
2022/09/21 06:55:34;;;;;;;5.32;2.40;;;;;;;7.44;100.00;101173.78;4973982;28;20039;-66
2022/09/21 06:58:01;;;;;;;4.03;2.30;;;;;;;7.51;100.00;101168.78;4973880;28;20054;-65
2022/09/21 07:00:27;;;;;;;4.32;2.40;;;;;;;7.56;100.00;101177.16;4973590;28;20049;-63
2022/09/21 07:02:52;;;;;;;3.92;2.35;;;;;;;7.67;100.00;101173.59;4972465;28;20034;-64
2022/09/21 07:05:18;;;;;;;9.88;2.53;;;;;;;7.75;100.00;101179.91;4972558;28;20463;-64
2022/09/21 07:07:44;;;;;;;3.75;2.35;;;;;;;7.83;100.00;101182.78;4973673;28;20073;-64
2022/09/21 07:10:09;;;;;;;3.63;2.15;;;;;;;7.92;100.00;101190.91;4973476;28;20094;-64
2022/09/21 07:12:35;;;;;;;7.63;2.85;;;;;;;8.01;100.00;101182.13;4988399;28;20157;-63
2022/09/21 07:15:02;;;;;;;6.75;2.80;;;;;;;8.12;100.00;101184.69;4973575;28;20042;-63
2022/09/21 07:17:35;;;;;;;6.43;3.08;;;;;;;8.18;100.00;101186.81;4973429;28;20073;-64
2022/09/21 07:20:01;;;;;;;3.95;2.35;;;;;;;8.27;100.00;101182.50;4973387;28;20039;-64
2022/09/21 07:22:31;;;;;;;6.00;2.88;;;;;;;8.36;100.00;101179.06;4972254;28;20038;-63
2022/09/21 07:24:57;;;;;;;4.75;2.70;;;;;;;8.43;100.00;101183.69;4973373;28;20480;-63
2022/09/21 07:27:28;;;;;;;5.53;2.75;;;;;;;8.56;100.00;101182.59;4973315;28;20126;-63
2022/09/21 07:29:53;;;;;;;3.78;2.50;;;;;;;8.59;100.00;101182.31;4973233;28;20042;-64
2022/09/21 07:32:19;;;;;;;7.72;2.78;;;;;;;8.63;100.00;101179.25;4973022;28;20038;-63
2022/09/21 07:34:45;;;;;;;4.43;2.95;;;;;;;8.77;100.00;101196.59;4973345;28;20031;-63
2022/09/21 07:37:11;;;;;;;5.65;2.83;;;;;;;8.86;100.00;101189.59;4973126;28;20049;-63
2022/09/21 07:39:37;;;;;;;4.75;2.95;;;;;;;8.95;100.00;101184.31;4973185;28;20047;-63
2022/09/21 07:42:04;;;;;;;5.65;2.83;;;;;;;9.07;100.00;101179.69;4972994;28;20073;-62
2022/09/21 07:44:30;;;;;;;5.45;2.90;;;;;;;9.13;100.00;101184.47;4973114;28;20444;-62
2022/09/21 07:46:55;;;;;;;5.55;2.65;;;;;;;9.24;100.00;101186.09;4972778;28;20039;-63
2022/09/21 07:49:20;;;;;;;6.25;2.65;;;;;;;9.31;100.00;101181.88;4971679;28;20449;-63
2022/09/21 07:51:46;;;;;;;6.22;3.13;;;;;;;9.43;100.00;101183.41;4971441;28;20129;-64
2022/09/21 07:54:12;;;;;;;7.43;3.17;;;;;;;9.56;100.00;101184.94;4972996;28;20050;-63
2022/09/21 07:56:37;;;;;;;11.55;3.80;;;;;;;9.61;100.00;101183.53;4972980;28;20043;-62
2022/09/21 07:59:06;;;;;;;6.28;3.20;;;;;;;9.68;99.59;101171.31;4972844;28;20031;-64
2022/09/21 08:01:34;;;;;;;10.00;3.20;;;;;;;9.81;99.17;101176.31;4971487;28;20035;-63
2022/09/21 08:04:02;;;;;;;6.55;3.63;;;;;;;9.89;97.86;101184.41;4972864;28;20456;-63
2022/09/21 08:06:29;;;;;;;8.52;4.00;;;;;;;9.97;97.87;101176.50;4987745;28;20046;-64
2022/09/21 08:08:55;;;;;;;11.13;3.83;;;;;;;10.07;97.25;101185.31;4972871;28;20077;-64
2022/09/21 08:11:21;;;;;;;8.50;3.67;;;;;;;10.11;98.10;101185.03;4972450;28;20078;-63
2022/09/21 08:13:47;;;;;;;7.68;3.22;;;;;;;10.15;96.88;101178.41;4972912;28;20038;-64
2022/09/21 08:16:13;;;;;;;8.13;3.40;;;;;;;10.26;97.02;101181.75;4972827;28;20078;-63
2022/09/21 08:18:40;;;;;;;8.68;4.00;;;;;;;10.38;95.65;101184.22;4972810;28;20043;-64
2022/09/21 08:21:07;;;;;;;9.48;4.35;;;;;;;10.48;95.70;101180.50;4964474;28;20117;-64
2022/09/21 08:23:33;;;;;;;7.33;3.73;;;;;;;10.53;96.51;101183.53;4962706;28;20043;-64
2022/09/21 08:26:01;;;;;;;10.48;3.70;;;;;;;10.64;95.85;101185.16;4961197;28;20027;-63
2022/09/21 08:28:28;;;;;;;7.05;3.25;;;;;;;10.71;94.67;101180.06;4961831;28;20497;-64
2022/09/21 08:30:53;;;;;;;9.95;3.63;;;;;;;10.81;94.35;101183.47;4960596;28;20035;-64
2022/09/21 08:33:18;;;;;;;6.15;3.47;;;;;;;10.95;93.98;101176.78;4960203;28;20047;-64
2022/09/21 08:35:54;;;;;;;6.18;3.13;;;;;;;11.04;94.11;101171.38;4953216;29;20163;-64
2022/09/21 08:38:20;;;;;;;6.40;3.45;;;;;;;11.19;93.04;101176.16;4953537;29;20073;-63
2022/09/21 08:40:46;;;;;;;7.07;3.00;;;;;;;11.34;92.33;101175.44;4951854;29;20039;-64
2022/09/21 08:43:34;;;;;;;6.40;3.60;;;;;;;11.41;91.74;101183.69;4953621;28;20050;-64
2022/09/21 08:46:05;;;;;;;6.85;3.05;;;;;;;11.57;91.98;101177.59;4970306;28;20027;-63
2022/09/21 08:48:36;;;;;;;6.07;3.10;;;;;;;11.66;91.57;101190.00;4972776;28;20061;-63
2022/09/21 08:51:07;;;;;;;7.47;3.88;;;;;;;11.75;89.80;101175.72;4972243;28;20579;-62
2022/09/21 08:53:48;;;;;;;10.32;3.15;;;;;;;11.94;89.26;101180.03;4972678;28;20043;-62
2022/09/21 08:56:15;;;;;;;6.90;3.10;;;;;;;12.01;88.84;101175.72;4972409;28;20150;-63
2022/09/21 08:58:42;;;;;;;6.90;3.80;;;;;;;12.06;88.20;101176.06;4972511;28;20050;-64
2022/09/21 09:01:28;;;;;;;6.20;3.28;;;;;;;12.18;87.46;101171.25;4970855;28;20045;-63
2022/09/21 09:04:12;;;;;;;11.55;4.30;;;;;;;12.30;87.04;101178.00;4956704;28;20043;-63
2022/09/21 09:06:58;;;;;;;12.98;3.85;;;;;;;12.42;87.18;101178.53;4955553;29;20118;-62
2022/09/21 09:09:29;;;;;;;6.63;3.58;;;;;;;12.54;86.90;101177.22;4956709;29;20039;-65
2022/09/21 09:12:16;;;;;;;8.02;3.53;;;;;;;12.68;85.73;101167.75;4956390;29;20085;-64
2022/09/21 09:15:15;;;;;;;5.07;3.07;;;;;;;12.93;83.92;101165.94;4956736;28;20035;-62
2022/09/21 09:18:07;;;;;;;11.15;3.10;;;;;;;13.05;84.04;101164.59;4956635;29;20078;-64
2022/09/21 09:20:39;;;;;;;4.43;2.40;;;;;;;13.29;83.40;101163.78;4956336;29;20039;-63
2022/09/21 09:23:28;;;;;;;8.38;2.60;;;;;;;13.49;81.06;101158.88;4955769;29;20036;-64
2022/09/21 09:26:00;;;;;;;5.78;2.65;;;;;;;13.72;79.67;101159.03;4927685;29;20055;-63
2022/09/21 09:28:40;;;;;;;4.53;2.30;;;;;;;13.95;76.36;101159.09;4955209;29;20081;-65
2022/09/21 09:31:12;;;;;;;2.60;2.03;;;;;;;14.11;75.12;101156.38;4956672;29;20034;-63
2022/09/21 09:33:48;;;;;;;5.18;2.50;;;;;;;14.29;74.61;101153.44;4956254;28;20081;-63
2022/09/21 09:36:14;;;;;;;3.20;1.75;;;;;;;14.48;73.92;101154.88;4956214;28;20104;-64
2022/09/21 09:38:52;;;;;;;4.50;2.08;;;;;;;14.66;71.83;101150.06;4956290;28;20167;-64
2022/09/21 09:41:26;;;;;;;4.43;2.00;;;;;;;14.92;70.31;101142.47;4955967;28;20055;-63
2022/09/21 09:44:37;;;;;;;2.90;1.63;;;;;;;14.94;69.85;101150.38;4956232;28;20110;-64
2022/09/21 09:47:33;;;;;;;2.33;1.50;;;;;;;15.17;67.68;101151.16;4943910;29;20502;-64
2022/09/21 09:50:20;;;;;;;2.58;1.48;;;;;;;15.46;66.05;101142.34;4955807;29;20046;-63
2022/09/21 09:52:48;;;;;;;10.55;1.90;;;;;;;15.60;66.31;101145.22;4956118;29;20074;-63
2022/09/21 09:55:25;;;;;;;3.22;1.90;;;;;;;15.92;64.34;101136.81;4955787;29;20490;-63
2022/09/21 09:57:51;;;;;;;;;;;;;;;16.33;62.12;101132.78;4956370;29;20035;-63
2022/09/21 10:00:19;;;;;;;4.13;1.50;;;;;;;16.86;59.32;101138.72;4955808;29;19965;-64
2022/09/21 10:02:48;;;;;;;2.20;1.30;;;;;;;17.18;57.78;101130.09;4955755;29;20039;-63
2022/09/21 10:05:31;;;;;;;3.47;1.50;;;;;;;17.27;57.21;101120.00;4955452;29;20114;-63
2022/09/21 10:07:57;;;;;;;2.85;1.55;;;;;;;17.67;56.03;101117.56;4955587;29;20090;-63
2022/09/21 10:10:33;;;;;;;5.10;1.85;;;;;;;18.01;54.66;101117.59;4962128;28;20132;-63
2022/09/21 10:13:05;;;;;;;2.15;1.40;;;;;;;18.27;55.02;101119.56;4975004;28;20561;-64
2022/09/21 10:15:31;;;;;;;3.28;1.40;;;;;;;18.44;52.80;101115.44;4974560;28;20121;-63
2022/09/21 10:18:15;;;;;;;1.23;0.98;;;;;;;18.90;51.34;101116.56;4971795;28;20130;-64
2022/09/21 10:21:00;;;;;;;1.48;1.20;;;;;;;19.70;48.94;101110.09;4973414;28;20030;-63
2022/09/21 10:23:27;;;;;;;3.67;1.00;;;;;;;19.79;47.94;101108.81;4974917;28;20125;-64
2022/09/21 10:25:57;;;;;;;1.92;1.23;;;;;;;19.56;48.30;101116.56;4974489;28;20138;-63
2022/09/21 10:28:23;;;;;;;0.90;0.85;;;;;;;19.66;47.30;101106.16;4973278;28;20046;-63
2022/09/21 10:30:49;;;;;;;1.65;0.93;;;;;;;19.38;47.73;101105.56;4974766;28;20513;-63
2022/09/21 10:33:21;;;;;;;1.67;0.88;;;;;;;19.98;47.14;101101.66;4974598;28;20047;-62
2022/09/21 10:35:51;;;;;;;1.55;0.93;;;;;;;19.79;46.97;101103.41;4974627;28;20042;-63
2022/09/21 10:38:19;;;;;;;3.63;1.02;;;;;;;19.81;46.76;101100.47;4974539;28;20666;-63
2022/09/21 10:40:46;;;;;;;1.05;0.80;;;;;;;19.47;48.36;101096.19;4974127;28;20142;-63
2022/09/21 10:43:33;;;;;;;1.95;0.75;;;;;;;19.69;47.15;101096.78;4974329;28;20037;-63
2022/09/21 10:45:59;;;;;;;3.17;0.90;;;;;;;19.60;47.47;101095.34;4974317;28;20482;-63
2022/09/21 10:48:26;;;;;;;2.17;0.77;;;;;;;19.02;48.73;101093.31;4974254;28;20073;-63
2022/09/21 10:50:53;;;;;;;2.05;1.00;;;;;;;19.54;48.06;101094.28;4973980;28;20117;-63
2022/09/21 10:53:28;;;;;;;1.30;1.08;;;;;;;20.17;46.76;101097.22;4974045;28;20035;-63
2022/09/21 10:56:06;;;;;;;3.15;0.82;;;;;;;20.22;44.19;101092.00;4974144;28;20030;-63
2022/09/21 10:58:33;;;;;;;1.42;1.15;;;;;;;20.34;44.60;101097.53;4958318;28;20521;-63
2022/09/21 11:01:31;;;;;;;3.20;0.80;;;;;;;20.19;44.44;101088.88;4953194;29;20515;-62
2022/09/21 11:04:02;;;;;;;1.95;0.95;;;;;;;20.21;45.50;101089.47;4922245;29;20089;-63
2022/09/21 11:06:53;;;;;;;2.05;0.90;;;;;;;20.54;44.81;101086.66;4954534;28;20043;-63
2022/09/21 11:09:25;;;;;;;1.17;0.85;;;;;;;20.98;43.08;101082.13;4959126;28;20043;-63
2022/09/21 11:12:06;;;;;;;1.77;0.85;;;;;;;20.90;42.84;101085.13;4973336;28;20125;-62
2022/09/21 11:14:46;;;;;;;1.20;0.75;;;;;;;21.69;41.91;101084.34;4974053;28;20159;-63
2022/09/21 11:17:17;;;;;;;0.55;0.50;;;;;;;22.14;40.17;101078.59;4973602;28;20528;-63
2022/09/21 11:19:55;;;;;;;2.17;0.60;;;;;;;22.04;39.53;101076.44;4973758;28;20441;-63
2022/09/21 11:22:32;;;;;;;1.08;0.60;;;;;;;21.66;40.81;101071.25;4973046;28;20043;-63
2022/09/21 11:25:17;;;;;;;;;;;;;;;22.24;40.52;101068.03;4973977;28;20038;-61
2022/09/21 11:27:48;;;;;;;0.68;0.52;;;;;;;23.04;38.06;101070.34;4973537;28;20308;-64
2022/09/21 11:30:16;;;;;;;1.10;0.77;;;;;;;22.50;38.54;101063.28;4973170;28;20109;-64
2022/09/21 11:33:18;;;;;;;0.70;0.60;;;;;;;21.92;40.10;101068.22;4973665;28;20609;-64
2022/09/21 11:36:02;;;;;;;0.60;0.60;;;;;;;21.93;40.43;101060.91;4964708;28;20109;-63
2022/09/21 11:38:40;;;;;;;1.98;0.50;;;;;;;22.80;39.36;101064.03;4973505;28;20035;-60
2022/09/21 11:41:34;;;;;;;1.05;0.65;;;;;;;22.45;39.60;101051.22;4973140;28;20041;-61
2022/09/21 11:44:14;;;;;;;0.90;0.60;;;;;;;22.06;39.57;101049.06;4973419;28;20135;-61
2022/09/21 11:47:07;;;;;;;0.85;0.65;;;;;;;22.49;39.72;101051.56;4965139;28;20090;-62
2022/09/21 11:50:02;;;;;;;0.63;0.52;;;;;;;23.44;37.99;101045.16;4954130;29;20062;-63
2022/09/21 11:52:50;;;;;;;0.77;0.60;;;;;;;24.13;36.20;101040.63;4953828;29;20089;-63
2022/09/21 11:55:49;;;;;;;2.10;0.50;;;;;;;22.98;37.06;101038.69;4953836;28;20046;-64
2022/09/21 11:58:39;;;;;;;1.05;0.63;;;;;;;24.61;34.65;101034.69;4953782;29;20031;-63
2022/09/21 12:01:37;;;;;;;0.82;0.60;;;;;;;24.48;34.56;101034.19;4953601;29;20051;-64
2022/09/21 12:04:53;;;;;;;0.63;0.55;;;;;;;24.47;35.57;101036.06;4953656;29;20471;-64
2022/09/21 12:08:15;;;;;;;0.80;0.47;;;;;;;23.90;34.84;101029.81;4953629;29;20525;-63
2022/09/21 12:11:12;;;;;;;0.35;0.35;;;;;;;23.61;34.97;101031.66;4894214;29;20168;-63
2022/09/21 12:14:27;;;;;;;0.25;0.20;;;;;;;23.68;35.19;101029.66;4953719;28;20118;-63
2022/09/21 12:17:17;;;;;;;1.13;0.40;;;;;;;24.27;34.21;101031.06;4948529;28;20045;-63
2022/09/21 12:20:00;;;;;;;0.35;0.28;;;;;;;24.75;32.82;101021.53;4953804;29;20450;-63
2022/09/21 12:22:28;;;;;;;1.83;0.50;;;;;;;24.27;34.12;101019.34;4953599;28;20130;-63
2022/09/21 12:25:30;;;;;;;0.25;0.25;;;;;;;24.52;34.07;101022.56;4953416;29;20047;-63
2022/09/21 12:28:05;;;;;;;0.70;0.40;;;;;;;25.07;32.88;101024.53;4949713;29;20079;-64
2022/09/21 12:30:33;;;;;;;1.35;0.50;;;;;;;25.83;31.89;101015.72;4953313;29;20054;-62
2022/09/21 12:33:13;;;;;;;;;;;;;;;25.64;32.30;101017.91;4953902;28;20047;-63
2022/09/21 12:35:46;;;;;;;2.22;0.60;;;;;;;26.13;30.98;101005.09;4958254;28;20013;-64
2022/09/21 12:38:35;;;;;;;1.30;0.50;;;;;;;25.55;32.12;101005.78;4975504;28;20042;-63
2022/09/21 12:41:18;;;;;;;0.32;0.30;;;;;;;25.72;30.49;101017.47;4976371;28;20034;-61
2022/09/21 12:44:12;;;;;;;0.80;0.30;;;;;;;23.87;32.75;101003.94;4976597;28;20039;-63
2022/09/21 12:46:46;;;;;;;1.13;0.55;;;;;;;25.23;31.98;101003.75;4976378;28;20049;-63
2022/09/21 12:49:19;;;;;;;1.40;0.60;;;;;;;25.17;32.12;101002.88;4976559;28;20676;-64
2022/09/21 12:51:50;;;;;;;0.95;0.70;;;;;;;25.77;31.91;101003.09;4976101;28;20121;-63
2022/09/21 12:54:44;;;;;;;1.65;0.38;;;;;;;25.70;30.99;100997.81;4976322;28;20038;-63
2022/09/21 12:57:38;;;;;;;0.52;0.50;;;;;;;25.37;32.48;100998.75;4976269;28;20410;-64
2022/09/21 13:00:10;;;;;;;1.45;0.47;;;;;;;24.04;34.53;101012.94;4976199;28;20031;-64
2022/09/21 13:02:47;;;;;;;1.38;0.40;;;;;;;24.07;34.26;101003.50;4974904;28;20386;-64
2022/09/21 13:05:30;;;;;;;0.43;0.43;;;;;;;23.73;34.98;100999.81;4976000;28;20066;-63
2022/09/21 13:08:12;;;;;;;0.80;0.30;;;;;;;23.86;33.83;100999.53;4976059;28;20045;-63
2022/09/21 13:10:43;;;;;;;1.15;0.52;;;;;;;24.61;33.40;100993.81;4975663;28;20132;-64
2022/09/21 13:13:23;;;;;;;0.43;0.40;;;;;;;25.29;32.27;100991.81;4976057;28;20070;-61
2022/09/21 13:15:50;;;;;;;0.32;0.32;;;;;;;25.33;32.28;100998.44;4975846;28;20046;-63
2022/09/21 13:18:33;;;;;;;0.50;0.32;;;;;;;25.33;31.71;100989.44;4975959;28;20093;-62
2022/09/21 13:21:25;;;;;;;0.55;0.40;;;;;;;25.78;30.67;100986.47;4975670;28;20046;-64
2022/09/21 13:24:02;;;;;;;0.40;0.40;;;;;;;24.73;32.15;100991.00;4975845;28;20501;-63
2022/09/21 13:27:06;;;;;;;0.50;0.47;;;;;;;23.84;34.24;100982.63;4974609;28;20047;-64
2022/09/21 13:29:35;;;;;;;0.40;0.25;;;;;;;23.84;33.87;100982.63;4973731;28;20527;-64
2022/09/21 13:32:02;;;;;;;0.57;0.30;;;;;;;23.41;34.38;100983.09;4975432;28;20035;-63
2022/09/21 13:34:35;;;;;;;;;;;;;;;23.74;34.77;100977.84;4976108;28;20039;-63
2022/09/21 13:37:18;;;;;;;0.25;0.25;;;;;;;24.01;33.73;100964.47;4975602;28;19914;-63
2022/09/21 13:39:54;;;;;;;0.60;0.47;;;;;;;23.61;35.06;100971.84;4975603;28;20038;-63
2022/09/21 13:42:29;;;;;;;1.08;0.40;;;;;;;24.15;34.62;100975.03;4975380;28;20031;-63
2022/09/21 13:44:56;;;;;;;0.60;0.40;;;;;;;24.51;32.78;100962.88;4975274;28;20054;-63
2022/09/21 13:47:31;;;;;;;1.02;0.70;;;;;;;24.30;34.48;100967.13;4975127;28;20090;-63
2022/09/21 13:49:59;;;;;;;1.10;0.40;;;;;;;25.19;32.39;100969.09;4975160;28;20034;-63
2022/09/21 13:52:38;;;;;;;0.47;0.47;;;;;;;24.28;33.69;100967.38;4975118;28;20058;-62
2022/09/21 13:55:30;;;;;;;0.40;0.40;;;;;;;24.68;32.51;100951.97;4975269;28;20067;-62
2022/09/21 13:58:00;;;;;;;0.52;0.30;;;;;;;24.32;33.71;100960.38;4975225;28;20039;-59
2022/09/21 14:00:58;;;;;;;0.65;0.50;;;;;;;23.99;34.20;100957.59;4974816;28;20038;-63
2022/09/21 14:03:31;;;;;;;0.82;0.40;;;;;;;24.08;34.47;100948.00;4973051;28;20117;-59
2022/09/21 14:06:19;;;;;;;0.30;0.30;;;;;;;23.29;35.47;100945.94;4973812;28;20030;-63
2022/09/21 14:08:58;;;;;;;0.63;0.50;;;;;;;22.37;36.80;100943.00;4972767;28;20105;-60
2022/09/21 14:11:34;;;;;;;1.33;0.68;;;;;;;21.61;38.17;100939.09;4974569;28;20130;-62
2022/09/21 14:14:02;;;;;;;0.20;0.20;;;;;;;21.41;38.13;100938.53;4975155;28;20395;-62
2022/09/21 14:16:32;;;;;;;1.58;0.77;;;;;;;20.86;39.28;100941.22;4974734;28;20167;-63
2022/09/21 14:19:18;;;;;;;0.57;0.47;;;;;;;20.49;40.12;100943.03;4974799;28;20394;-63
2022/09/21 14:22:02;;;;;;;0.35;0.25;;;;;;;20.18;41.16;100933.06;4943419;28;20471;-62
2022/09/21 14:24:37;;;;;;;0.45;0.40;;;;;;;20.14;40.88;100924.53;4970901;28;20050;-63
2022/09/21 14:27:24;;;;;;;0.57;0.38;;;;;;;19.63;42.77;100930.09;4974424;28;20053;-64
2022/09/21 14:29:59;;;;;;;1.35;0.47;;;;;;;19.75;42.54;100933.75;4974369;28;20030;-63
2022/09/21 14:32:30;;;;;;;0.20;0.20;;;;;;;19.37;43.49;100936.44;4973952;28;20121;-63
2022/09/21 14:35:06;;;;;;;0.73;0.30;;;;;;;18.48;44.32;100928.91;4974186;28;20507;-62
2022/09/21 14:37:42;;;;;;;0.73;0.35;;;;;;;19.02;44.13;100930.50;4974152;28;20046;-63
2022/09/21 14:40:19;;;;;;;0.35;0.35;;;;;;;19.03;43.76;100924.06;4973838;28;20038;-62
2022/09/21 14:42:46;;;;;;;0.43;0.30;;;;;;;19.04;42.40;100923.03;4974113;28;20038;-62
2022/09/21 14:45:17;;;;;;;2.17;0.40;;;;;;;18.75;42.53;100924.34;4974027;28;20410;-61
2022/09/21 14:48:01;;;;;;;0.80;0.20;;;;;;;18.60;43.79;100927.25;4974005;28;20557;-62
2022/09/21 14:50:32;;;;;;;0.52;0.47;;;;;;;18.61;43.61;100927.03;4973319;28;20038;-62
2022/09/21 14:53:06;;;;;;;0.75;0.55;;;;;;;18.61;44.65;100918.94;4973542;28;20070;-61
2022/09/21 14:55:52;;;;;;;0.35;0.30;;;;;;;18.51;43.86;100917.69;4973959;28;20034;-62
2022/09/21 14:58:35;;;;;;;0.80;0.60;;;;;;;18.54;45.37;100917.31;4972980;28;20486;-62
2022/09/21 15:01:35;;;;;;;1.55;0.60;;;;;;;18.38;45.15;100911.28;4973139;28;20043;-63
2022/09/21 15:04:18;;;;;;;0.52;0.45;;;;;;;18.52;44.95;100908.56;4973649;28;20047;-62
2022/09/21 15:13:35;;;;;;;0.30;0.30;;;;;;;18.45;45.04;100908.56;4973568;28;20062;-62
2022/09/21 15:16:36;;;;;;;0.13;0.13;;;;;;;18.28;44.78;100899.25;4973514;28;20041;-62
2022/09/21 15:19:24;;;;;;;1.33;0.30;;;;;;;18.35;44.21;100892.00;4953880;28;20046;-63
2022/09/21 15:21:54;;;;;;;0.30;0.30;;;;;;;18.31;43.58;100893.44;4962462;28;20039;-64
2022/09/21 15:24:30;;;;;;;0.60;0.20;;;;;;;18.29;44.20;100895.53;4973492;28;20042;-63
2022/09/21 15:27:14;;;;;;;0.50;0.50;;;;;;;18.33;44.83;100889.53;4964302;28;20031;-63
2022/09/21 15:29:47;;;;;;;1.17;0.47;;;;;;;18.30;44.64;100884.53;4954303;29;20051;-63
2022/09/21 15:32:30;;;;;;;0.55;0.40;;;;;;;18.22;45.02;100887.44;4953966;29;20044;-63
2022/09/21 15:35:14;;;;;;;0.35;0.35;;;;;;;18.26;44.48;100887.88;4954237;29;20031;-64
2022/09/21 15:37:39;;;;;;;0.47;0.35;;;;;;;18.02;44.46;100887.44;4954157;28;20058;-63
2022/09/21 15:40:15;;;;;;;0.55;0.40;;;;;;;17.67;43.46;100883.19;4953894;28;20427;-63
2022/09/21 15:43:00;;;;;;;0.57;0.47;;;;;;;17.58;43.44;100878.00;4954095;29;20052;-63
2022/09/21 15:45:28;;;;;;;0.30;0.30;;;;;;;17.47;44.16;100869.69;4953832;29;20047;-63
2022/09/21 15:47:54;;;;;;;0.32;0.30;;;;;;;17.66;44.19;100879.69;4953914;29;20054;-63
2022/09/21 15:50:22;;;;;;;1.17;0.50;;;;;;;17.71;43.60;100889.84;4953568;29;20043;-63
2022/09/21 15:53:08;;;;;;;0.40;0.38;;;;;;;17.70;44.64;100885.50;4953750;29;20046;-63
2022/09/21 15:55:33;;;;;;;0.80;0.50;;;;;;;17.57;45.06;100881.75;4953751;28;20035;-63
2022/09/21 15:57:59;;;;;;;0.50;0.30;;;;;;;17.67;45.03;100892.13;4953861;28;20571;-62
2022/09/21 16:00:31;;;;;;;0.40;0.40;;;;;;;17.53;44.46;100893.94;4953404;29;20038;-64
2022/09/21 16:03:17;;;;;;;0.65;0.30;;;;;;;17.45;45.18;100885.22;4953826;29;20121;-63
2022/09/21 16:05:49;;;;;;;0.55;0.50;;;;;;;17.34;44.93;100892.88;4952243;28;20050;-63
2022/09/21 16:08:25;;;;;;;0.65;0.50;;;;;;;17.39;44.82;100886.88;4953442;28;20050;-63
2022/09/21 16:10:50;;;;;;;0.85;0.63;;;;;;;17.37;45.25;100888.94;4953436;28;20035;-49
2022/09/21 16:16:13;;;;;;;1.92;0.90;;;;;;;17.45;47.72;100891.44;4953672;29;20487;-47
2022/09/21 16:18:44;;;;;;;0.55;0.52;;;;;;;17.40;45.87;100891.22;4953954;29;20049;-48
2022/09/21 16:21:24;;;;;;;0.70;0.60;;;;;;;17.42;46.42;100891.84;4953311;29;20383;-46
2022/09/21 16:23:53;;;;;;;0.65;0.50;;;;;;;17.42;45.85;100897.25;4953579;29;20039;-61
2022/09/21 16:26:23;;;;;;;1.13;0.63;;;;;;;17.49;46.06;100897.25;4953360;29;20049;-62
2022/09/21 16:31:21;;;;;;;0.30;0.30;;;;;;;17.40;46.53;100903.84;4987421;28;20145;-61